Burlington, Indiana
Current Conditions -  °F | °C
As of 6:35 AM on Tuesday 21 Oct 2014 (Local Time) from KGGP Reporting Station
Overcast Overcast  
Wind Chill: 44°   Ceiling: 4900
Heat Index: 46°   Visibility: 10mi
Dew Point: 41°   Wind: 6mph
Humidity: 81%   Direction: 340°NNW
Pressure: 30.03"   Gusts: NA
Location:  40.48°N, 86.39°W
Report Text: KGGP 211035Z AUTO 34005KT 10SM OVC049 08/05 A3003 RMK AO2
Loading
Personal Weather Stations






























Interactive Weather Map
Tropical Storm Tracking
New forecast layout! Learn more

10-Day Weather Forecast

Advertisements
Track Severe Weather on mobile